LSZH/ZRH METAR and TAF weather

Enter ICAO airport designator
Station Type Date Time Source
LSZH METAR 2020/01/21 09:20 UTC NOAA

LSZH 210920Z VRB01KT 8000 SCT012 M01/M04 Q1040 NOSIG


Station Type Date Time Source
LSZH Decoded METAR 2020/01/21 09:20 UTC NOAA

Zurich-Kloten, Switzerland (LSZH) 47-29N 008-32E 432M
Jan 21, 2020 - 04:20 AM EST / 2020.01.21 0920 UTC
Wind: Variable at 1 MPH (1 KT):0
Visibility: 4 mile(s):0
Sky conditions: partly cloudy
Temperature: 30 F (-1 C)
Dew Point: 24 F (-4 C)
Relative Humidity: 80%
Pressure (altimeter): 30.71 in. Hg (1040 hPa)
ob: LSZH 210920Z VRB01KT 8000 SCT012 M01/M04 Q1040 NOSIG
cycle: 9

Station Type Date Time Source
LSZH TAF 2020/01/21 09:37 UTC NOAA

TAF LSZH 210825Z 2109/2215 VRB03KT 7000 FEW012 TX02/2114Z TNM04/2206Z TX02/2214Z PROB40 2112/2117 CAVOK
BECMG 2120/2123 4000 BR
BECMG 2123/2202 1500 BCFG SCT005 PROB40 2202/2208 0500 FZFG VV002
BECMG 2208/2211 7000

Example: see airport list